Terminal Aerodrome Forecast
Issued by NWS Wilmington, OH

Current Version | Previous Version | Graphics & Text | Print | Product List | Glossary On
Versions: 1 2 3 4 5 6 7 8 9 10 11 12 13 14 15 16 17 18 19 20 21 22 23
000
FTUS41 KILN 101500 AAA
TAFCVG
TAF AMD
KCVG 101500Z 1015/1118 23012G20KT P6SM BKN080
     FM102200 23008KT P6SM SCT200
     FM110600 27004KT P6SM FEW040 SCT200
     FM111200 21007KT P6SM SCT015 BKN100=

USA.gov is the U.S. government's official web portal to all federal, state and local government web resources and services.